Brandon Municipal Airport
CYBR : now visible

Airfield :











YOU CAN JOIN US ON...

 
LOGIN :

Register | Disclaimer

   EN    FR    IT 

 









Legend :    VFR   Marginal VFR   IFR   Intensive IFR   Very Intensive IFR
Visi :
Ceiling :
>= 8 km
>= 3000ft
5 to 8 km
1000 to 3000 ft
1500m to 5 km
500 to 1000 ft
800 to 1500m
200 to 500 ft
< 800m
< 200 ft
Symbols :   Thunderstorms  Fog  Heavy snow  Heavy precipitations  Wind > 20 kt






- Airport Elevation : 1343 ft
- IATA code : YBR


CYBR - Brandon Municipal

CURRENT METAR :
  • 011811Z 05018G24KT 1/2SM SN VV004 M05/M06 A2986 RMK SN8 PRESFR SLP137

EXPIRED METARs :
  • 011744Z 06018G28KT 3/4SM -SN OVC009 M05/M06 A2988 RMK SN2ST6 SLP144
  • 011736Z 06018G27KT 1SM -SN OVC009 M05/M06 A2989 RMK ST8 SLP145
  • 011700Z 06019G24KT 2SM -SN OVC009 M05/M06 A2987 RMK ST8 /S01/ PRESFR SLP139
  • 011646Z 05015G25KT 2SM -SN OVC007 M05/M06 A2989 RMK ST8 PRESFR SLP145
  • 011600Z 06020G32KT 6SM -SN OVC007 M04/M05 A2988 RMK ST8 SLP141

TAF TAF CYBR
Valid from the 01 at 18:00 until the 02 at 06:00 UTC


011750Z 0118/0206 05017G27KT 5/8SM -SN BR VV005
TEMPO 0118/0124 2SM -SN OVC010
PROB40 0118/0122 1/4SM +SHSN VV003
FM020000 04008KT 21/2SM -SN OVC008
TEMPO 0200/0203 6SM -SN OVC012
PROB30 0200/0203 11/2SM -SN BR
FM020300 33014G24KT P6SM OVC015 RMK NXT FCST BY 020000Z



MET'MAP, your aeronautical weather chart ! - Copyright ORBIFLY December 2007 - Disclaimer

ORBIFLY MET'MAP TEAM :

Programming & Development : Alexandra Zaïnal
Concept & original design : Baudouin d'Aumeries
Assistance for programming : Marc-Olivier Méhu
Technical & hardware support : Manuel Goepfert

Contact : metmap@orbifly.com




SOURCES & CREDITS :

   NOAA       Earth
Advisory